createdAt,value
2023-04-25T00:00:54.531Z,89.32
2023-04-25T00:05:59.084Z,89.19
2023-04-25T00:11:02.358Z,88.74
2023-04-25T00:16:04.234Z,89.52
2023-04-25T00:21:07.414Z,89.52
2023-04-25T00:26:09.010Z,90.10
2023-04-25T00:31:10.856Z,90.31
2023-04-25T00:36:12.526Z,90.76
2023-04-25T00:41:14.472Z,90.02
2023-04-25T00:46:16.156Z,89.68
2023-04-25T00:51:21.234Z,89.62
2023-04-25T00:56:23.218Z,90.85
2023-04-25T01:01:25.089Z,91.94
2023-04-25T01:06:26.697Z,92.64
2023-04-25T01:11:28.363Z,91.83
2023-04-25T01:16:30.328Z,91.19
2023-04-25T01:21:31.959Z,93.20
2023-04-25T01:26:34.543Z,94.26
2023-04-25T01:31:36.342Z,93.99
2023-04-25T01:36:37.999Z,93.49
2023-04-25T01:41:39.800Z,94.94
2023-04-25T01:46:42.093Z,94.78
2023-04-25T01:51:44.023Z,95.52
2023-04-25T01:56:51.217Z,93.64
2023-04-25T02:01:53.730Z,93.40
2023-04-25T02:07:01.633Z,94.11
2023-04-25T02:12:12.690Z,95.16
2023-04-25T02:17:29.345Z,95.38
2023-04-25T02:22:31.582Z,95.32
2023-04-25T02:27:33.158Z,94.96
2023-04-25T02:32:35.342Z,96.06
2023-04-25T02:37:39.571Z,94.91
2023-04-25T02:42:41.822Z,95.52
2023-04-25T02:47:43.384Z,95.54
2023-04-25T02:52:46.977Z,96.80
2023-04-25T02:57:52.574Z,96.49
2023-04-25T03:03:06.340Z,96.88
2023-04-25T03:08:07.990Z,96.41
2023-04-25T03:13:12.334Z,96.92
2023-04-25T03:18:16.333Z,95.78
2023-04-25T03:23:17.944Z,95.49
2023-04-25T03:28:21.113Z,96.95
2023-04-25T03:33:23.389Z,96.94
2023-04-25T03:38:25.219Z,96.08
2023-04-25T03:43:27.261Z,96.09
2023-04-25T03:48:34.831Z,96.26
2023-04-25T03:53:36.455Z,94.98
2023-04-25T03:58:58.065Z,95.38
2023-04-25T04:04:01.980Z,97.15
2023-04-25T04:09:04.816Z,97.63
2023-04-25T04:14:11.360Z,98.09
2023-04-25T04:19:17.081Z,97.67
2023-04-25T04:24:33.684Z,97.84
2023-04-25T04:29:38.574Z,98.45
2023-04-25T04:34:50.364Z,98.84
2023-04-25T04:39:54.277Z,98.82
2023-04-25T04:45:25.445Z,99.17
2023-04-25T04:50:57.312Z,99.72
2023-04-25T04:56:21.855Z,100.00
2023-04-25T05:01:30.115Z,99.94
2023-04-25T05:06:38.579Z,100.00
2023-04-25T05:11:55.567Z,100.00
2023-04-25T05:17:09.281Z,100.00
2023-04-25T05:22:33.754Z,100.00
2023-04-25T05:27:45.395Z,100.00
2023-04-25T05:32:58.229Z,100.00
2023-04-25T05:38:00.244Z,100.00
2023-04-25T05:43:22.352Z,100.00
2023-04-25T05:48:33.560Z,100.00
2023-04-25T05:53:54.493Z,100.00
2023-04-25T05:58:56.848Z,100.00
2023-04-25T06:03:58.946Z,100.00
2023-04-25T06:09:01.563Z,98.79
2023-04-25T06:14:03.888Z,100.00
2023-04-25T06:19:10.434Z,100.00
2023-04-25T06:24:12.102Z,100.00
2023-04-25T06:29:14.279Z,99.20
2023-04-25T06:34:16.299Z,99.45
2023-04-25T06:39:18.049Z,100.00
2023-04-25T06:44:19.822Z,100.00
2023-04-25T06:49:27.568Z,100.00
2023-04-25T06:54:30.684Z,100.00
2023-04-25T06:59:40.065Z,100.00
2023-04-25T07:04:42.067Z,99.80
2023-04-25T07:09:44.358Z,99.43
2023-04-25T07:14:46.099Z,98.81
2023-04-25T07:19:48.071Z,98.82
2023-04-25T07:24:50.006Z,98.95
2023-04-25T07:29:54.994Z,99.33
2023-04-25T07:34:58.254Z,99.83
2023-04-25T07:39:59.905Z,99.75
2023-04-25T07:45:02.254Z,100.00
2023-04-25T07:50:04.737Z,100.00
2023-04-25T07:55:07.893Z,100.00
2023-04-25T08:00:34.109Z,100.00
2023-04-25T08:06:05.674Z,100.00
2023-04-25T08:11:15.090Z,100.00
2023-04-25T08:16:16.886Z,100.00
2023-04-25T08:21:18.636Z,100.00
2023-04-25T08:26:20.771Z,100.00
2023-04-25T08:31:22.847Z,100.00
2023-04-25T08:36:39.371Z,100.00
2023-04-25T08:41:53.905Z,100.00
2023-04-25T08:46:57.339Z,100.00
2023-04-25T08:52:06.863Z,100.00
2023-04-25T08:57:09.244Z,100.00
2023-04-25T09:02:15.497Z,100.00
2023-04-25T09:07:22.479Z,100.00
2023-04-25T09:12:26.449Z,100.00
2023-04-25T09:17:29.749Z,100.00
2023-04-25T09:22:32.919Z,100.00
2023-04-25T09:27:34.497Z,100.00
2023-04-25T09:32:57.924Z,100.00
2023-04-25T09:37:59.842Z,100.00
2023-04-25T09:43:22.336Z,100.00
2023-04-25T09:48:27.841Z,100.00
2023-04-25T09:53:33.005Z,100.00
2023-04-25T09:58:54.713Z,100.00
2023-04-25T10:03:58.999Z,100.00
2023-04-25T10:09:22.220Z,100.00
2023-04-25T10:14:25.219Z,100.00
2023-04-25T10:19:27.969Z,100.00
2023-04-25T10:24:32.266Z,100.00
2023-04-25T10:29:33.888Z,100.00
2023-04-25T10:34:42.451Z,100.00
2023-04-25T10:39:45.033Z,100.00
2023-04-25T10:45:03.992Z,100.00
2023-04-25T10:50:09.452Z,100.00
2023-04-25T10:55:11.357Z,100.00
2023-04-25T11:00:18.322Z,100.00
2023-04-25T11:05:55.231Z,100.00
2023-04-25T11:11:00.123Z,100.00
2023-04-25T11:16:23.653Z,100.00
2023-04-25T11:21:30.172Z,100.00
2023-04-25T11:26:31.913Z,100.00
2023-04-25T11:31:33.526Z,100.00
2023-04-25T11:36:35.669Z,100.00
2023-04-25T11:41:42.497Z,100.00
2023-04-25T11:46:45.795Z,100.00
2023-04-25T11:51:49.856Z,100.00
2023-04-25T11:56:51.591Z,100.00
2023-04-25T12:01:53.387Z,100.00
2023-04-25T12:06:56.434Z,100.00
2023-04-25T12:12:00.281Z,100.00
2023-04-25T12:17:05.040Z,100.00
2023-04-25T12:22:23.588Z,100.00
2023-04-25T12:27:28.285Z,100.00
2023-04-25T12:32:30.398Z,100.00
2023-04-25T12:37:32.457Z,100.00
2023-04-25T12:42:33.993Z,100.00
2023-04-25T12:47:36.306Z,100.00
2023-04-25T12:52:37.883Z,100.00
2023-04-25T12:57:39.283Z,100.00
2023-04-25T13:02:41.402Z,100.00
2023-04-25T13:07:43.174Z,100.00
2023-04-25T13:12:45.228Z,100.00
2023-04-25T13:17:47.011Z,100.00
2023-04-25T13:22:48.811Z,100.00
2023-04-25T13:27:50.704Z,99.75
2023-04-25T13:32:52.473Z,97.85
2023-04-25T13:37:54.062Z,95.32
2023-04-25T13:42:56.698Z,93.51
2023-04-25T13:47:58.300Z,88.80
2023-04-25T13:52:59.988Z,90.49
2023-04-25T13:58:08.014Z,89.17
2023-04-25T14:03:10.107Z,88.53
2023-04-25T14:08:11.848Z,87.16
2023-04-25T14:13:13.413Z,87.16
2023-04-25T14:18:15.129Z,85.78
2023-04-25T14:23:18.477Z,86.86
2023-04-25T14:28:20.894Z,86.11
2023-04-25T14:33:27.753Z,84.39
2023-04-25T14:38:29.320Z,85.04
2023-04-25T14:43:30.850Z,80.15
2023-04-25T14:48:32.489Z,81.75
2023-04-25T14:53:34.308Z,82.10
2023-04-25T14:58:36.015Z,82.96
2023-04-25T15:03:37.669Z,82.45
2023-04-25T15:08:39.467Z,83.14
2023-04-25T15:13:41.307Z,84.94
2023-04-25T15:18:46.035Z,85.89
2023-04-25T15:23:52.366Z,88.36
2023-04-25T15:28:54.547Z,92.33
2023-04-25T15:33:56.124Z,95.07
2023-04-25T15:38:57.726Z,96.60
2023-04-25T15:44:01.728Z,97.96
2023-04-25T15:49:03.505Z,99.90
2023-04-25T15:54:05.734Z,100.00
2023-04-25T15:59:07.398Z,100.00
2023-04-25T16:04:09.131Z,100.00
2023-04-25T16:09:12.064Z,100.00
2023-04-25T16:14:13.598Z,100.00
2023-04-25T16:19:15.368Z,100.00
2023-04-25T16:24:17.149Z,100.00
2023-04-25T16:29:18.803Z,100.00
2023-04-25T16:34:23.225Z,100.00
2023-04-25T16:39:24.812Z,100.00
2023-04-25T16:44:26.413Z,100.00
2023-04-25T16:49:28.298Z,100.00
2023-04-25T16:54:29.871Z,100.00
2023-04-25T16:59:31.800Z,100.00
2023-04-25T17:04:33.681Z,100.00
2023-04-25T17:09:36.337Z,100.00
2023-04-25T17:14:37.937Z,100.00
2023-04-25T17:19:39.594Z,100.00
2023-04-25T17:24:41.438Z,100.00
2023-04-25T17:29:43.170Z,100.00
2023-04-25T17:34:46.283Z,100.00
2023-04-25T17:39:47.866Z,100.00
2023-04-25T17:44:52.416Z,100.00
2023-04-25T17:49:54.748Z,100.00
2023-04-25T17:54:56.446Z,100.00
2023-04-25T17:59:58.035Z,100.00
2023-04-25T18:04:59.681Z,100.00
2023-04-25T18:10:01.836Z,100.00
2023-04-25T18:15:07.038Z,100.00
2023-04-25T18:20:15.105Z,100.00
2023-04-25T18:25:17.162Z,100.00
2023-04-25T18:30:19.088Z,100.00
2023-04-25T18:35:21.199Z,100.00
2023-04-25T18:40:23.076Z,100.00
2023-04-25T18:45:25.227Z,100.00
2023-04-25T18:50:27.028Z,100.00
2023-04-25T18:55:29.627Z,100.00
2023-04-25T19:00:31.435Z,100.00
2023-04-25T19:05:33.067Z,100.00
2023-04-25T19:10:34.642Z,100.00
2023-04-25T19:15:39.746Z,100.00
2023-04-25T19:20:41.876Z,100.00
2023-04-25T19:25:43.582Z,100.00
2023-04-25T19:30:46.469Z,100.00
2023-04-25T19:35:48.111Z,100.00
2023-04-25T19:40:49.871Z,100.00
2023-04-25T19:45:51.759Z,100.00
2023-04-25T19:50:53.361Z,100.00
2023-04-25T19:55:54.885Z,100.00
2023-04-25T20:00:57.682Z,100.00
2023-04-25T20:05:59.354Z,100.00
2023-04-25T20:11:01.047Z,100.00
2023-04-25T20:16:02.949Z,100.00
2023-04-25T20:21:04.620Z,100.00
2023-04-25T20:26:06.618Z,100.00
2023-04-25T20:31:09.969Z,100.00
2023-04-25T20:36:11.803Z,100.00
2023-04-25T20:41:13.493Z,100.00
2023-04-25T20:46:16.745Z,100.00
2023-04-25T20:51:18.639Z,100.00
2023-04-25T20:56:22.119Z,100.00
2023-04-25T21:01:24.496Z,100.00
2023-04-25T21:06:27.701Z,100.00
2023-04-25T21:11:29.292Z,100.00
2023-04-25T21:16:34.962Z,100.00
2023-04-25T21:21:36.751Z,100.00
2023-04-25T21:26:38.338Z,100.00
2023-04-25T21:31:40.111Z,100.00
2023-04-25T21:36:41.712Z,100.00
2023-04-25T21:41:46.395Z,100.00
2023-04-25T21:46:48.021Z,100.00
2023-04-25T21:51:49.633Z,100.00
2023-04-25T21:56:51.454Z,100.00
2023-04-25T22:01:53.818Z,100.00
2023-04-25T22:06:55.706Z,100.00
2023-04-25T22:11:58.665Z,100.00
2023-04-25T22:17:01.258Z,100.00
2023-04-25T22:22:02.836Z,100.00
2023-04-25T22:27:04.823Z,100.00
2023-04-25T22:32:06.790Z,100.00
2023-04-25T22:37:08.375Z,100.00
2023-04-25T22:42:10.137Z,100.00
2023-04-25T22:47:11.945Z,100.00
2023-04-25T22:52:13.611Z,100.00
2023-04-25T22:57:16.826Z,100.00
2023-04-25T23:02:18.509Z,100.00
2023-04-25T23:07:21.255Z,100.00
2023-04-25T23:12:22.786Z,100.00
2023-04-25T23:17:24.412Z,100.00
2023-04-25T23:22:26.353Z,100.00
2023-04-25T23:27:28.173Z,100.00
2023-04-25T23:32:29.855Z,100.00
2023-04-25T23:37:35.898Z,100.00
2023-04-25T23:42:38.859Z,100.00
2023-04-25T23:47:40.637Z,100.00
2023-04-25T23:52:42.232Z,100.00
2023-04-25T23:57:44.521Z,100.00
